sensor_id;sensor_type;location;lat;lon;timestamp;P1;durP1;ratioP1;P2;durP2;ratioP2
11671;SDS011;5892;43.412;24.612;2023-12-04T00:00:25;11.83;;;7.40;;
11671;SDS011;5892;43.412;24.612;2023-12-04T00:02:53;9.03;;;7.17;;
11671;SDS011;5892;43.412;24.612;2023-12-04T00:05:21;11.03;;;7.33;;
11671;SDS011;5892;43.412;24.612;2023-12-04T00:07:49;11.00;;;7.73;;
11671;SDS011;5892;43.412;24.612;2023-12-04T00:10:17;9.70;;;7.70;;
11671;SDS011;5892;43.412;24.612;2023-12-04T00:12:44;8.73;;;6.90;;
11671;SDS011;5892;43.412;24.612;2023-12-04T00:15:14;8.77;;;7.13;;
11671;SDS011;5892;43.412;24.612;2023-12-04T00:17:43;10.80;;;7.53;;
11671;SDS011;5892;43.412;24.612;2023-12-04T00:20:12;9.30;;;7.43;;
11671;SDS011;5892;43.412;24.612;2023-12-04T00:22:41;9.57;;;6.97;;
11671;SDS011;5892;43.412;24.612;2023-12-04T00:25:08;9.93;;;7.73;;
11671;SDS011;5892;43.412;24.612;2023-12-04T00:27:35;10.50;;;7.17;;
11671;SDS011;5892;43.412;24.612;2023-12-04T00:35:17;8.53;;;7.03;;
11671;SDS011;5892;43.412;24.612;2023-12-04T00:37:49;8.50;;;6.90;;
11671;SDS011;5892;43.412;24.612;2023-12-04T00:40:17;8.10;;;6.57;;
11671;SDS011;5892;43.412;24.612;2023-12-04T00:42:44;10.00;;;6.83;;
11671;SDS011;5892;43.412;24.612;2023-12-04T00:45:11;9.03;;;6.13;;
11671;SDS011;5892;43.412;24.612;2023-12-04T00:47:38;9.70;;;6.80;;
11671;SDS011;5892;43.412;24.612;2023-12-04T00:50:05;7.83;;;6.30;;
11671;SDS011;5892;43.412;24.612;2023-12-04T00:52:34;7.43;;;6.40;;
11671;SDS011;5892;43.412;24.612;2023-12-04T00:55:01;8.47;;;6.50;;
11671;SDS011;5892;43.412;24.612;2023-12-04T00:57:29;8.03;;;6.57;;
11671;SDS011;5892;43.412;24.612;2023-12-04T00:59:57;8.07;;;6.50;;
11671;SDS011;5892;43.412;24.612;2023-12-04T01:02:25;8.30;;;6.40;;
11671;SDS011;5892;43.412;24.612;2023-12-04T01:04:52;8.07;;;6.43;;
11671;SDS011;5892;43.412;24.612;2023-12-04T01:07:19;7.07;;;6.23;;
11671;SDS011;5892;43.412;24.612;2023-12-04T01:09:50;7.43;;;6.37;;
11671;SDS011;5892;43.412;24.612;2023-12-04T01:12:19;6.43;;;5.50;;
11671;SDS011;5892;43.412;24.612;2023-12-04T01:14:46;7.83;;;6.33;;
11671;SDS011;5892;43.412;24.612;2023-12-04T01:17:14;7.67;;;6.20;;
11671;SDS011;5892;43.412;24.612;2023-12-04T01:19:41;7.50;;;6.10;;
11671;SDS011;5892;43.412;24.612;2023-12-04T01:24:43;7.37;;;6.23;;
11671;SDS011;5892;43.412;24.612;2023-12-04T01:33:52;6.90;;;5.70;;
11671;SDS011;5892;43.412;24.612;2023-12-04T01:36:19;7.00;;;5.70;;
11671;SDS011;5892;43.412;24.612;2023-12-04T01:38:46;7.73;;;6.03;;
11671;SDS011;5892;43.412;24.612;2023-12-04T01:41:13;8.23;;;5.97;;
11671;SDS011;5892;43.412;24.612;2023-12-04T01:43:40;8.30;;;6.20;;
11671;SDS011;5892;43.412;24.612;2023-12-04T01:46:07;7.43;;;6.17;;
11671;SDS011;5892;43.412;24.612;2023-12-04T01:48:37;6.77;;;6.00;;
11671;SDS011;5892;43.412;24.612;2023-12-04T01:51:05;8.13;;;5.93;;
11671;SDS011;5892;43.412;24.612;2023-12-04T01:53:36;8.03;;;6.33;;
11671;SDS011;5892;43.412;24.612;2023-12-04T01:56:05;7.27;;;5.70;;
11671;SDS011;5892;43.412;24.612;2023-12-04T02:01:09;7.07;;;6.00;;
11671;SDS011;5892;43.412;24.612;2023-12-04T02:03:49;7.00;;;5.87;;
11671;SDS011;5892;43.412;24.612;2023-12-04T02:06:30;6.70;;;5.57;;
11671;SDS011;5892;43.412;24.612;2023-12-04T02:08:57;6.73;;;5.60;;
11671;SDS011;5892;43.412;24.612;2023-12-04T02:11:24;7.77;;;5.93;;
11671;SDS011;5892;43.412;24.612;2023-12-04T02:13:52;7.00;;;5.50;;
11671;SDS011;5892;43.412;24.612;2023-12-04T02:16:19;6.43;;;5.73;;
11671;SDS011;5892;43.412;24.612;2023-12-04T02:18:50;6.13;;;5.13;;
11671;SDS011;5892;43.412;24.612;2023-12-04T02:21:18;5.83;;;5.07;;
11671;SDS011;5892;43.412;24.612;2023-12-04T02:23:49;5.90;;;5.10;;
11671;SDS011;5892;43.412;24.612;2023-12-04T02:26:16;6.63;;;5.50;;
11671;SDS011;5892;43.412;24.612;2023-12-04T02:28:50;7.13;;;5.80;;
11671;SDS011;5892;43.412;24.612;2023-12-04T02:31:21;6.70;;;5.30;;
11671;SDS011;5892;43.412;24.612;2023-12-04T02:33:51;6.10;;;5.03;;
11671;SDS011;5892;43.412;24.612;2023-12-04T02:36:22;6.00;;;5.00;;
11671;SDS011;5892;43.412;24.612;2023-12-04T02:38:51;6.03;;;5.00;;
11671;SDS011;5892;43.412;24.612;2023-12-04T02:41:19;6.67;;;4.97;;
11671;SDS011;5892;43.412;24.612;2023-12-04T02:43:46;5.90;;;5.07;;
11671;SDS011;5892;43.412;24.612;2023-12-04T02:46:13;6.70;;;5.20;;
11671;SDS011;5892;43.412;24.612;2023-12-04T02:48:41;6.20;;;5.17;;
11671;SDS011;5892;43.412;24.612;2023-12-04T02:51:08;7.37;;;5.20;;
11671;SDS011;5892;43.412;24.612;2023-12-04T02:53:35;6.37;;;5.07;;
11671;SDS011;5892;43.412;24.612;2023-12-04T02:56:03;6.27;;;5.00;;
11671;SDS011;5892;43.412;24.612;2023-12-04T02:58:31;5.70;;;5.00;;
11671;SDS011;5892;43.412;24.612;2023-12-04T03:00:59;6.23;;;5.10;;
11671;SDS011;5892;43.412;24.612;2023-12-04T03:03:26;6.60;;;5.20;;
11671;SDS011;5892;43.412;24.612;2023-12-04T03:05:53;6.63;;;5.17;;
11671;SDS011;5892;43.412;24.612;2023-12-04T03:08:19;6.23;;;5.00;;
11671;SDS011;5892;43.412;24.612;2023-12-04T03:10:49;7.80;;;5.20;;
11671;SDS011;5892;43.412;24.612;2023-12-04T03:13:17;6.57;;;5.53;;
11671;SDS011;5892;43.412;24.612;2023-12-04T03:15:44;6.47;;;5.17;;
11671;SDS011;5892;43.412;24.612;2023-12-04T03:18:11;5.80;;;4.97;;
11671;SDS011;5892;43.412;24.612;2023-12-04T03:20:38;7.40;;;5.20;;
11671;SDS011;5892;43.412;24.612;2023-12-04T03:23:04;6.50;;;5.30;;
11671;SDS011;5892;43.412;24.612;2023-12-04T03:25:32;6.27;;;5.00;;
11671;SDS011;5892;43.412;24.612;2023-12-04T03:27:59;6.77;;;5.50;;
11671;SDS011;5892;43.412;24.612;2023-12-04T03:30:27;6.63;;;5.47;;
11671;SDS011;5892;43.412;24.612;2023-12-04T03:35:29;6.30;;;5.30;;
11671;SDS011;5892;43.412;24.612;2023-12-04T03:37:56;6.07;;;5.30;;
11671;SDS011;5892;43.412;24.612;2023-12-04T03:40:24;6.23;;;4.93;;
11671;SDS011;5892;43.412;24.612;2023-12-04T03:42:51;6.73;;;5.33;;
11671;SDS011;5892;43.412;24.612;2023-12-04T03:45:18;7.90;;;5.40;;
11671;SDS011;5892;43.412;24.612;2023-12-04T03:47:47;6.50;;;5.20;;
11671;SDS011;5892;43.412;24.612;2023-12-04T03:50:14;7.00;;;5.80;;
11671;SDS011;5892;43.412;24.612;2023-12-04T03:52:41;6.17;;;5.27;;
11671;SDS011;5892;43.412;24.612;2023-12-04T03:55:08;6.50;;;5.20;;
11671;SDS011;5892;43.412;24.612;2023-12-04T03:57:36;6.73;;;5.40;;
11671;SDS011;5892;43.412;24.612;2023-12-04T04:00:03;7.83;;;5.27;;
11671;SDS011;5892;43.412;24.612;2023-12-04T04:02:31;6.47;;;5.13;;
11671;SDS011;5892;43.412;24.612;2023-12-04T04:04:59;6.47;;;5.77;;
11671;SDS011;5892;43.412;24.612;2023-12-04T04:07:29;7.20;;;5.07;;
11671;SDS011;5892;43.412;24.612;2023-12-04T04:09:56;6.67;;;5.53;;
11671;SDS011;5892;43.412;24.612;2023-12-04T04:12:23;7.40;;;5.53;;
11671;SDS011;5892;43.412;24.612;2023-12-04T04:14:51;6.90;;;5.53;;
11671;SDS011;5892;43.412;24.612;2023-12-04T04:17:18;7.17;;;5.50;;
11671;SDS011;5892;43.412;24.612;2023-12-04T04:19:45;7.30;;;5.50;;
11671;SDS011;5892;43.412;24.612;2023-12-04T04:22:14;7.63;;;5.67;;
11671;SDS011;5892;43.412;24.612;2023-12-04T04:24:41;7.10;;;5.47;;
11671;SDS011;5892;43.412;24.612;2023-12-04T04:27:08;7.93;;;5.73;;
11671;SDS011;5892;43.412;24.612;2023-12-04T04:29:35;7.63;;;5.73;;
11671;SDS011;5892;43.412;24.612;2023-12-04T04:32:02;6.93;;;5.60;;
11671;SDS011;5892;43.412;24.612;2023-12-04T04:34:29;7.67;;;5.60;;
11671;SDS011;5892;43.412;24.612;2023-12-04T04:36:56;7.33;;;5.63;;
11671;SDS011;5892;43.412;24.612;2023-12-04T04:39:27;9.43;;;6.40;;
11671;SDS011;5892;43.412;24.612;2023-12-04T04:41:54;7.43;;;5.33;;
11671;SDS011;5892;43.412;24.612;2023-12-04T04:44:20;6.77;;;5.23;;
11671;SDS011;5892;43.412;24.612;2023-12-04T04:46:47;6.13;;;4.83;;
11671;SDS011;5892;43.412;24.612;2023-12-04T04:49:14;5.67;;;4.73;;
11671;SDS011;5892;43.412;24.612;2023-12-04T04:51:41;7.23;;;5.73;;
11671;SDS011;5892;43.412;24.612;2023-12-04T04:54:09;9.10;;;5.90;;
11671;SDS011;5892;43.412;24.612;2023-12-04T04:56:37;6.77;;;5.23;;
11671;SDS011;5892;43.412;24.612;2023-12-04T04:59:04;6.20;;;5.10;;
11671;SDS011;5892;43.412;24.612;2023-12-04T05:01:31;7.17;;;5.10;;
11671;SDS011;5892;43.412;24.612;2023-12-04T05:03:58;6.73;;;5.20;;
11671;SDS011;5892;43.412;24.612;2023-12-04T05:06:25;7.00;;;5.10;;
11671;SDS011;5892;43.412;24.612;2023-12-04T05:08:52;5.63;;;4.50;;
11671;SDS011;5892;43.412;24.612;2023-12-04T05:11:19;6.27;;;4.70;;
11671;SDS011;5892;43.412;24.612;2023-12-04T05:13:47;5.40;;;4.80;;
11671;SDS011;5892;43.412;24.612;2023-12-04T05:16:14;6.50;;;4.93;;
11671;SDS011;5892;43.412;24.612;2023-12-04T05:18:42;5.93;;;4.87;;
11671;SDS011;5892;43.412;24.612;2023-12-04T05:21:09;8.37;;;5.13;;
11671;SDS011;5892;43.412;24.612;2023-12-04T05:23:36;10.30;;;5.20;;
11671;SDS011;5892;43.412;24.612;2023-12-04T05:26:03;7.23;;;5.13;;
11671;SDS011;5892;43.412;24.612;2023-12-04T05:28:31;6.27;;;5.33;;
11671;SDS011;5892;43.412;24.612;2023-12-04T05:31:00;6.43;;;5.23;;
11671;SDS011;5892;43.412;24.612;2023-12-04T05:33:27;7.27;;;5.13;;
11671;SDS011;5892;43.412;24.612;2023-12-04T05:35:54;7.10;;;5.90;;
11671;SDS011;5892;43.412;24.612;2023-12-04T05:38:21;8.37;;;5.67;;
11671;SDS011;5892;43.412;24.612;2023-12-04T05:40:48;7.57;;;5.57;;
11671;SDS011;5892;43.412;24.612;2023-12-04T05:43:15;6.93;;;5.40;;
11671;SDS011;5892;43.412;24.612;2023-12-04T05:45:43;9.13;;;5.60;;
11671;SDS011;5892;43.412;24.612;2023-12-04T05:48:12;7.77;;;5.13;;
11671;SDS011;5892;43.412;24.612;2023-12-04T05:50:38;6.63;;;5.23;;
11671;SDS011;5892;43.412;24.612;2023-12-04T05:53:06;9.00;;;5.23;;
11671;SDS011;5892;43.412;24.612;2023-12-04T05:55:33;9.33;;;5.17;;
11671;SDS011;5892;43.412;24.612;2023-12-04T05:58:00;7.57;;;5.50;;
11671;SDS011;5892;43.412;24.612;2023-12-04T06:00:28;11.30;;;5.60;;
11671;SDS011;5892;43.412;24.612;2023-12-04T06:02:55;7.37;;;5.30;;
11671;SDS011;5892;43.412;24.612;2023-12-04T06:05:23;7.37;;;5.07;;
11671;SDS011;5892;43.412;24.612;2023-12-04T06:07:50;9.60;;;5.10;;
11671;SDS011;5892;43.412;24.612;2023-12-04T06:10:17;6.23;;;5.13;;
11671;SDS011;5892;43.412;24.612;2023-12-04T06:12:44;6.97;;;5.60;;
11671;SDS011;5892;43.412;24.612;2023-12-04T06:15:14;6.43;;;5.03;;
11671;SDS011;5892;43.412;24.612;2023-12-04T06:17:41;6.93;;;5.30;;
11671;SDS011;5892;43.412;24.612;2023-12-04T06:20:09;6.10;;;5.07;;
11671;SDS011;5892;43.412;24.612;2023-12-04T06:22:40;8.00;;;4.93;;
11671;SDS011;5892;43.412;24.612;2023-12-04T06:25:08;5.90;;;5.07;;
11671;SDS011;5892;43.412;24.612;2023-12-04T06:27:36;6.47;;;4.93;;
11671;SDS011;5892;43.412;24.612;2023-12-04T06:30:05;7.03;;;5.23;;
11671;SDS011;5892;43.412;24.612;2023-12-04T06:32:33;6.50;;;4.87;;
11671;SDS011;5892;43.412;24.612;2023-12-04T06:35:01;9.43;;;5.00;;
11671;SDS011;5892;43.412;24.612;2023-12-04T06:37:30;8.87;;;4.70;;
11671;SDS011;5892;43.412;24.612;2023-12-04T06:39:59;6.17;;;4.70;;
11671;SDS011;5892;43.412;24.612;2023-12-04T06:42:28;6.37;;;4.90;;
11671;SDS011;5892;43.412;24.612;2023-12-04T06:44:56;7.03;;;5.70;;
11671;SDS011;5892;43.412;24.612;2023-12-04T06:47:24;7.70;;;5.40;;
11671;SDS011;5892;43.412;24.612;2023-12-04T06:49:51;5.97;;;4.77;;
11671;SDS011;5892;43.412;24.612;2023-12-04T06:52:18;6.60;;;4.43;;
11671;SDS011;5892;43.412;24.612;2023-12-04T06:54:45;5.73;;;4.50;;
11671;SDS011;5892;43.412;24.612;2023-12-04T06:57:14;4.90;;;3.83;;
11671;SDS011;5892;43.412;24.612;2023-12-04T06:59:41;5.27;;;4.47;;
11671;SDS011;5892;43.412;24.612;2023-12-04T07:02:08;8.07;;;4.30;;
11671;SDS011;5892;43.412;24.612;2023-12-04T07:04:36;5.30;;;4.30;;
11671;SDS011;5892;43.412;24.612;2023-12-04T07:07:08;4.80;;;4.10;;
11671;SDS011;5892;43.412;24.612;2023-12-04T07:09:35;5.17;;;3.80;;
11671;SDS011;5892;43.412;24.612;2023-12-04T07:12:02;8.67;;;4.67;;
11671;SDS011;5892;43.412;24.612;2023-12-04T07:14:32;7.13;;;4.57;;
11671;SDS011;5892;43.412;24.612;2023-12-04T07:17:02;6.40;;;3.90;;
11671;SDS011;5892;43.412;24.612;2023-12-04T07:19:29;8.30;;;4.07;;
11671;SDS011;5892;43.412;24.612;2023-12-04T07:21:58;4.80;;;4.10;;
11671;SDS011;5892;43.412;24.612;2023-12-04T07:24:25;6.63;;;4.00;;
11671;SDS011;5892;43.412;24.612;2023-12-04T07:26:52;7.33;;;3.63;;
11671;SDS011;5892;43.412;24.612;2023-12-04T07:29:20;5.67;;;4.10;;
11671;SDS011;5892;43.412;24.612;2023-12-04T07:31:49;11.30;;;4.43;;
11671;SDS011;5892;43.412;24.612;2023-12-04T07:34:17;18.80;;;4.83;;
11671;SDS011;5892;43.412;24.612;2023-12-04T07:36:45;7.13;;;3.63;;
11671;SDS011;5892;43.412;24.612;2023-12-04T07:39:13;3.70;;;3.40;;
11671;SDS011;5892;43.412;24.612;2023-12-04T07:41:40;4.50;;;3.43;;
11671;SDS011;5892;43.412;24.612;2023-12-04T07:44:07;21.17;;;5.60;;
11671;SDS011;5892;43.412;24.612;2023-12-04T07:46:34;5.37;;;3.70;;
11671;SDS011;5892;43.412;24.612;2023-12-04T07:49:03;8.10;;;4.83;;
11671;SDS011;5892;43.412;24.612;2023-12-04T07:51:30;34.63;;;5.93;;
11671;SDS011;5892;43.412;24.612;2023-12-04T07:53:57;5.50;;;4.33;;
11671;SDS011;5892;43.412;24.612;2023-12-04T07:56:26;5.67;;;4.50;;
11671;SDS011;5892;43.412;24.612;2023-12-04T07:58:53;5.67;;;4.50;;
11671;SDS011;5892;43.412;24.612;2023-12-04T08:01:23;7.37;;;4.63;;
11671;SDS011;5892;43.412;24.612;2023-12-04T08:03:50;9.73;;;5.07;;
11671;SDS011;5892;43.412;24.612;2023-12-04T08:06:19;6.70;;;5.10;;
11671;SDS011;5892;43.412;24.612;2023-12-04T08:08:46;7.70;;;4.63;;
11671;SDS011;5892;43.412;24.612;2023-12-04T08:11:13;4.40;;;4.00;;
11671;SDS011;5892;43.412;24.612;2023-12-04T08:13:40;6.00;;;4.40;;
11671;SDS011;5892;43.412;24.612;2023-12-04T08:16:12;4.33;;;3.80;;
11671;SDS011;5892;43.412;24.612;2023-12-04T08:18:40;5.40;;;4.57;;
11671;SDS011;5892;43.412;24.612;2023-12-04T08:21:08;3.90;;;3.50;;
11671;SDS011;5892;43.412;24.612;2023-12-04T08:23:36;4.70;;;4.07;;
11671;SDS011;5892;43.412;24.612;2023-12-04T08:26:03;8.30;;;4.50;;
11671;SDS011;5892;43.412;24.612;2023-12-04T08:28:32;5.37;;;4.30;;
11671;SDS011;5892;43.412;24.612;2023-12-04T08:31:00;4.13;;;3.73;;
11671;SDS011;5892;43.412;24.612;2023-12-04T08:33:27;5.13;;;4.30;;
11671;SDS011;5892;43.412;24.612;2023-12-04T08:35:54;6.30;;;4.90;;
11671;SDS011;5892;43.412;24.612;2023-12-04T08:38:21;6.83;;;5.10;;
11671;SDS011;5892;43.412;24.612;2023-12-04T08:40:50;4.60;;;3.90;;
11671;SDS011;5892;43.412;24.612;2023-12-04T08:43:17;5.07;;;4.33;;
11671;SDS011;5892;43.412;24.612;2023-12-04T08:45:44;5.20;;;4.17;;
11671;SDS011;5892;43.412;24.612;2023-12-04T08:48:13;4.10;;;3.47;;
11671;SDS011;5892;43.412;24.612;2023-12-04T08:50:40;4.00;;;3.40;;
11671;SDS011;5892;43.412;24.612;2023-12-04T08:53:07;3.80;;;3.33;;
11671;SDS011;5892;43.412;24.612;2023-12-04T08:55:34;3.60;;;3.30;;
11671;SDS011;5892;43.412;24.612;2023-12-04T08:58:02;5.00;;;3.40;;
11671;SDS011;5892;43.412;24.612;2023-12-04T09:00:30;14.63;;;4.13;;
11671;SDS011;5892;43.412;24.612;2023-12-04T09:02:57;13.20;;;4.00;;
11671;SDS011;5892;43.412;24.612;2023-12-04T09:05:24;5.17;;;3.57;;
11671;SDS011;5892;43.412;24.612;2023-12-04T09:07:52;5.30;;;3.47;;
11671;SDS011;5892;43.412;24.612;2023-12-04T09:10:19;6.50;;;3.63;;
11671;SDS011;5892;43.412;24.612;2023-12-04T09:12:46;8.23;;;3.63;;
11671;SDS011;5892;43.412;24.612;2023-12-04T09:15:15;3.70;;;3.27;;
11671;SDS011;5892;43.412;24.612;2023-12-04T09:17:42;5.30;;;4.27;;
11671;SDS011;5892;43.412;24.612;2023-12-04T09:20:09;12.67;;;4.93;;
11671;SDS011;5892;43.412;24.612;2023-12-04T09:22:36;8.87;;;4.60;;
11671;SDS011;5892;43.412;24.612;2023-12-04T09:25:04;7.50;;;3.87;;
11671;SDS011;5892;43.412;24.612;2023-12-04T09:27:35;9.90;;;3.27;;
11671;SDS011;5892;43.412;24.612;2023-12-04T09:30:02;7.37;;;3.07;;
11671;SDS011;5892;43.412;24.612;2023-12-04T09:32:31;3.90;;;3.33;;
11671;SDS011;5892;43.412;24.612;2023-12-04T09:34:58;4.20;;;3.37;;
11671;SDS011;5892;43.412;24.612;2023-12-04T09:37:25;10.77;;;4.43;;
11671;SDS011;5892;43.412;24.612;2023-12-04T09:39:55;3.87;;;3.20;;
11671;SDS011;5892;43.412;24.612;2023-12-04T09:42:22;7.30;;;3.63;;
11671;SDS011;5892;43.412;24.612;2023-12-04T09:44:49;3.50;;;3.20;;
11671;SDS011;5892;43.412;24.612;2023-12-04T09:47:20;6.07;;;4.47;;
11671;SDS011;5892;43.412;24.612;2023-12-04T09:49:51;4.93;;;3.63;;
11671;SDS011;5892;43.412;24.612;2023-12-04T09:52:19;4.53;;;3.93;;
11671;SDS011;5892;43.412;24.612;2023-12-04T09:54:47;5.03;;;3.33;;
11671;SDS011;5892;43.412;24.612;2023-12-04T09:57:14;5.60;;;3.30;;
11671;SDS011;5892;43.412;24.612;2023-12-04T09:59:43;4.00;;;3.43;;
11671;SDS011;5892;43.412;24.612;2023-12-04T10:02:11;4.33;;;3.43;;
11671;SDS011;5892;43.412;24.612;2023-12-04T10:04:38;4.43;;;3.37;;
11671;SDS011;5892;43.412;24.612;2023-12-04T10:07:09;3.60;;;3.30;;
11671;SDS011;5892;43.412;24.612;2023-12-04T10:09:36;5.00;;;3.23;;
11671;SDS011;5892;43.412;24.612;2023-12-04T10:12:04;3.90;;;3.50;;
11671;SDS011;5892;43.412;24.612;2023-12-04T10:14:33;4.87;;;3.70;;
11671;SDS011;5892;43.412;24.612;2023-12-04T10:16:59;3.90;;;3.50;;
11671;SDS011;5892;43.412;24.612;2023-12-04T10:19:43;5.37;;;3.33;;
11671;SDS011;5892;43.412;24.612;2023-12-04T10:22:11;5.00;;;3.23;;
11671;SDS011;5892;43.412;24.612;2023-12-04T10:24:39;5.00;;;3.67;;
11671;SDS011;5892;43.412;24.612;2023-12-04T10:27:07;4.47;;;3.17;;
11671;SDS011;5892;43.412;24.612;2023-12-04T10:29:40;3.67;;;3.10;;
11671;SDS011;5892;43.412;24.612;2023-12-04T10:32:08;5.30;;;3.30;;
11671;SDS011;5892;43.412;24.612;2023-12-04T10:34:35;6.13;;;3.50;;
11671;SDS011;5892;43.412;24.612;2023-12-04T10:37:03;5.97;;;3.27;;
11671;SDS011;5892;43.412;24.612;2023-12-04T10:39:45;4.77;;;3.57;;
11671;SDS011;5892;43.412;24.612;2023-12-04T10:45:00;3.90;;;3.37;;
11671;SDS011;5892;43.412;24.612;2023-12-04T10:47:30;4.97;;;3.20;;
11671;SDS011;5892;43.412;24.612;2023-12-04T10:49:57;5.43;;;4.70;;
11671;SDS011;5892;43.412;24.612;2023-12-04T10:52:24;5.57;;;4.40;;
11671;SDS011;5892;43.412;24.612;2023-12-04T10:54:55;6.30;;;4.57;;
11671;SDS011;5892;43.412;24.612;2023-12-04T10:57:31;5.73;;;4.67;;
11671;SDS011;5892;43.412;24.612;2023-12-04T11:00:04;4.60;;;3.97;;
11671;SDS011;5892;43.412;24.612;2023-12-04T11:02:34;3.80;;;3.40;;
11671;SDS011;5892;43.412;24.612;2023-12-04T11:05:12;3.87;;;3.47;;
11671;SDS011;5892;43.412;24.612;2023-12-04T11:07:44;3.77;;;3.30;;
11671;SDS011;5892;43.412;24.612;2023-12-04T11:10:16;4.43;;;4.03;;
11671;SDS011;5892;43.412;24.612;2023-12-04T11:12:47;7.57;;;4.37;;
11671;SDS011;5892;43.412;24.612;2023-12-04T11:15:20;5.13;;;3.97;;
11671;SDS011;5892;43.412;24.612;2023-12-04T11:17:51;6.00;;;4.47;;
11671;SDS011;5892;43.412;24.612;2023-12-04T11:20:21;5.23;;;4.50;;
11671;SDS011;5892;43.412;24.612;2023-12-04T11:22:51;5.03;;;4.13;;
11671;SDS011;5892;43.412;24.612;2023-12-04T11:25:20;6.20;;;4.20;;
11671;SDS011;5892;43.412;24.612;2023-12-04T11:27:50;5.73;;;4.40;;
11671;SDS011;5892;43.412;24.612;2023-12-04T11:30:18;6.97;;;4.10;;
11671;SDS011;5892;43.412;24.612;2023-12-04T11:32:46;6.50;;;4.10;;
11671;SDS011;5892;43.412;24.612;2023-12-04T11:35:16;5.13;;;4.30;;
11671;SDS011;5892;43.412;24.612;2023-12-04T11:37:46;4.30;;;3.53;;
11671;SDS011;5892;43.412;24.612;2023-12-04T11:40:15;6.63;;;4.13;;
11671;SDS011;5892;43.412;24.612;2023-12-04T11:42:43;4.73;;;3.90;;
11671;SDS011;5892;43.412;24.612;2023-12-04T11:45:15;6.30;;;4.93;;
11671;SDS011;5892;43.412;24.612;2023-12-04T11:47:50;4.30;;;3.60;;
11671;SDS011;5892;43.412;24.612;2023-12-04T11:50:20;6.17;;;3.77;;
11671;SDS011;5892;43.412;24.612;2023-12-04T11:52:48;4.47;;;3.73;;
11671;SDS011;5892;43.412;24.612;2023-12-04T11:55:18;5.40;;;4.30;;
11671;SDS011;5892;43.412;24.612;2023-12-04T11:57:51;4.50;;;3.83;;
11671;SDS011;5892;43.412;24.612;2023-12-04T12:00:19;3.77;;;3.30;;
11671;SDS011;5892;43.412;24.612;2023-12-04T12:03:03;9.43;;;6.27;;
11671;SDS011;5892;43.412;24.612;2023-12-04T12:05:35;4.10;;;3.70;;
11671;SDS011;5892;43.412;24.612;2023-12-04T12:08:06;5.27;;;4.30;;
11671;SDS011;5892;43.412;24.612;2023-12-04T12:10:34;5.80;;;4.17;;
11671;SDS011;5892;43.412;24.612;2023-12-04T12:13:03;6.43;;;4.03;;
11671;SDS011;5892;43.412;24.612;2023-12-04T12:15:31;4.13;;;3.40;;
11671;SDS011;5892;43.412;24.612;2023-12-04T12:17:59;4.43;;;3.37;;
11671;SDS011;5892;43.412;24.612;2023-12-04T12:20:26;3.70;;;3.40;;
11671;SDS011;5892;43.412;24.612;2023-12-04T12:22:54;3.73;;;3.20;;
11671;SDS011;5892;43.412;24.612;2023-12-04T12:25:21;7.00;;;3.20;;
11671;SDS011;5892;43.412;24.612;2023-12-04T12:27:52;4.03;;;3.30;;
11671;SDS011;5892;43.412;24.612;2023-12-04T12:30:21;3.73;;;3.17;;
11671;SDS011;5892;43.412;24.612;2023-12-04T12:32:50;3.60;;;3.23;;
11671;SDS011;5892;43.412;24.612;2023-12-04T12:35:18;3.60;;;3.30;;
11671;SDS011;5892;43.412;24.612;2023-12-04T12:37:45;3.90;;;3.50;;
11671;SDS011;5892;43.412;24.612;2023-12-04T12:40:12;5.23;;;4.23;;
11671;SDS011;5892;43.412;24.612;2023-12-04T12:42:40;8.03;;;3.80;;
11671;SDS011;5892;43.412;24.612;2023-12-04T12:45:08;5.47;;;4.43;;
11671;SDS011;5892;43.412;24.612;2023-12-04T12:47:39;7.53;;;4.10;;
11671;SDS011;5892;43.412;24.612;2023-12-04T12:50:07;7.90;;;3.83;;
11671;SDS011;5892;43.412;24.612;2023-12-04T12:52:38;4.50;;;3.40;;
11671;SDS011;5892;43.412;24.612;2023-12-04T12:55:07;6.63;;;4.10;;
11671;SDS011;5892;43.412;24.612;2023-12-04T12:57:34;6.90;;;4.23;;
11671;SDS011;5892;43.412;24.612;2023-12-04T13:00:01;4.20;;;3.80;;
11671;SDS011;5892;43.412;24.612;2023-12-04T13:02:33;5.27;;;3.90;;
11671;SDS011;5892;43.412;24.612;2023-12-04T13:05:04;5.93;;;4.13;;
11671;SDS011;5892;43.412;24.612;2023-12-04T13:07:33;6.33;;;5.03;;
11671;SDS011;5892;43.412;24.612;2023-12-04T13:10:00;6.40;;;4.67;;
11671;SDS011;5892;43.412;24.612;2023-12-04T13:12:30;5.00;;;4.50;;
11671;SDS011;5892;43.412;24.612;2023-12-04T13:14:57;6.47;;;5.13;;
11671;SDS011;5892;43.412;24.612;2023-12-04T13:17:24;8.17;;;4.80;;
11671;SDS011;5892;43.412;24.612;2023-12-04T13:19:51;9.63;;;5.87;;
11671;SDS011;5892;43.412;24.612;2023-12-04T13:22:20;6.87;;;5.17;;
11671;SDS011;5892;43.412;24.612;2023-12-04T13:24:48;7.10;;;5.20;;
11671;SDS011;5892;43.412;24.612;2023-12-04T13:27:15;6.40;;;4.97;;
11671;SDS011;5892;43.412;24.612;2023-12-04T13:29:43;5.50;;;4.90;;
11671;SDS011;5892;43.412;24.612;2023-12-04T13:32:14;11.77;;;5.40;;
11671;SDS011;5892;43.412;24.612;2023-12-04T13:34:41;7.77;;;5.27;;
11671;SDS011;5892;43.412;24.612;2023-12-04T13:37:08;6.87;;;5.43;;
11671;SDS011;5892;43.412;24.612;2023-12-04T13:39:37;8.60;;;5.90;;
11671;SDS011;5892;43.412;24.612;2023-12-04T13:42:12;7.73;;;6.33;;
11671;SDS011;5892;43.412;24.612;2023-12-04T13:44:57;7.73;;;5.77;;
11671;SDS011;5892;43.412;24.612;2023-12-04T13:47:24;13.27;;;7.20;;
11671;SDS011;5892;43.412;24.612;2023-12-04T13:49:51;15.33;;;6.87;;
11671;SDS011;5892;43.412;24.612;2023-12-04T13:52:20;10.90;;;7.53;;
11671;SDS011;5892;43.412;24.612;2023-12-04T13:55:00;7.93;;;6.03;;
11671;SDS011;5892;43.412;24.612;2023-12-04T13:57:36;8.00;;;6.47;;
11671;SDS011;5892;43.412;24.612;2023-12-04T14:00:15;7.60;;;6.27;;
11671;SDS011;5892;43.412;24.612;2023-12-04T14:02:42;8.73;;;6.47;;
11671;SDS011;5892;43.412;24.612;2023-12-04T14:05:09;7.73;;;6.30;;
11671;SDS011;5892;43.412;24.612;2023-12-04T14:07:40;8.23;;;6.77;;
11671;SDS011;5892;43.412;24.612;2023-12-04T14:10:10;9.90;;;7.23;;
11671;SDS011;5892;43.412;24.612;2023-12-04T14:12:37;9.83;;;7.33;;
11671;SDS011;5892;43.412;24.612;2023-12-04T14:15:04;9.67;;;7.43;;
11671;SDS011;5892;43.412;24.612;2023-12-04T14:17:31;10.97;;;7.90;;
11671;SDS011;5892;43.412;24.612;2023-12-04T14:20:05;11.07;;;7.47;;
11671;SDS011;5892;43.412;24.612;2023-12-04T14:22:37;10.87;;;8.17;;
11671;SDS011;5892;43.412;24.612;2023-12-04T14:25:06;10.97;;;7.80;;
11671;SDS011;5892;43.412;24.612;2023-12-04T14:27:35;9.97;;;7.60;;
11671;SDS011;5892;43.412;24.612;2023-12-04T14:30:06;16.77;;;8.70;;
11671;SDS011;5892;43.412;24.612;2023-12-04T14:32:34;11.50;;;7.80;;
11671;SDS011;5892;43.412;24.612;2023-12-04T14:35:01;11.83;;;9.27;;
11671;SDS011;5892;43.412;24.612;2023-12-04T14:37:28;18.57;;;11.03;;
11671;SDS011;5892;43.412;24.612;2023-12-04T14:39:55;13.27;;;11.07;;
11671;SDS011;5892;43.412;24.612;2023-12-04T14:42:23;13.97;;;8.90;;
11671;SDS011;5892;43.412;24.612;2023-12-04T14:44:51;11.87;;;7.70;;
11671;SDS011;5892;43.412;24.612;2023-12-04T14:47:18;14.10;;;10.43;;
11671;SDS011;5892;43.412;24.612;2023-12-04T14:49:45;19.50;;;11.07;;
11671;SDS011;5892;43.412;24.612;2023-12-04T14:52:13;14.33;;;8.60;;
11671;SDS011;5892;43.412;24.612;2023-12-04T14:54:43;12.07;;;9.50;;
11671;SDS011;5892;43.412;24.612;2023-12-04T14:57:37;15.70;;;9.57;;
11671;SDS011;5892;43.412;24.612;2023-12-04T15:00:37;13.60;;;9.20;;
11671;SDS011;5892;43.412;24.612;2023-12-04T15:03:21;14.13;;;9.83;;
11671;SDS011;5892;43.412;24.612;2023-12-04T15:06:11;20.67;;;11.30;;
11671;SDS011;5892;43.412;24.612;2023-12-04T15:09:05;16.73;;;11.80;;
11671;SDS011;5892;43.412;24.612;2023-12-04T15:12:13;19.90;;;12.43;;
11671;SDS011;5892;43.412;24.612;2023-12-04T15:14:48;23.20;;;12.33;;
11671;SDS011;5892;43.412;24.612;2023-12-04T15:17:23;21.00;;;11.97;;